sensor_id;sensor_type;location;lat;lon;timestamp;pressure;altitude;pressure_sealevel;temperature;humidity
76352;BME280;65179;47.786;19.138;2023-04-30T00:01:46;100202.13;;;12.86;71.90
76352;BME280;65179;47.786;19.138;2023-04-30T00:04:11;100203.31;;;12.90;71.74
76352;BME280;65179;47.786;19.138;2023-04-30T00:06:37;100201.03;;;12.87;71.89
76352;BME280;65179;47.786;19.138;2023-04-30T00:09:02;100195.72;;;12.92;71.80
76352;BME280;65179;47.786;19.138;2023-04-30T00:11:27;100199.75;;;12.89;71.98
76352;BME280;65179;47.786;19.138;2023-04-30T00:13:53;100203.56;;;12.88;71.87
76352;BME280;65179;47.786;19.138;2023-04-30T00:16:19;100200.59;;;12.78;72.35
76352;BME280;65179;47.786;19.138;2023-04-30T00:18:44;100201.16;;;12.80;72.20
76352;BME280;65179;47.786;19.138;2023-04-30T00:21:10;100202.72;;;12.88;72.11
76352;BME280;65179;47.786;19.138;2023-04-30T00:23:35;100199.16;;;12.87;72.21
76352;BME280;65179;47.786;19.138;2023-04-30T00:26:01;100202.34;;;12.84;72.14
76352;BME280;65179;47.786;19.138;2023-04-30T00:28:26;100203.56;;;12.88;72.06
76352;BME280;65179;47.786;19.138;2023-04-30T00:30:52;100205.56;;;12.81;72.07
76352;BME280;65179;47.786;19.138;2023-04-30T00:33:17;100204.84;;;12.74;72.18
76352;BME280;65179;47.786;19.138;2023-04-30T00:35:43;100207.25;;;12.71;72.33
76352;BME280;65179;47.786;19.138;2023-04-30T00:38:08;100194.16;;;12.84;72.02
76352;BME280;65179;47.786;19.138;2023-04-30T00:40:35;100195.50;;;12.82;72.31
76352;BME280;65179;47.786;19.138;2023-04-30T00:43:01;100198.56;;;12.74;72.99
76352;BME280;65179;47.786;19.138;2023-04-30T00:45:27;100198.94;;;12.77;72.83
76352;BME280;65179;47.786;19.138;2023-04-30T00:47:52;100198.09;;;12.77;73.09
76352;BME280;65179;47.786;19.138;2023-04-30T00:50:18;100200.25;;;12.75;72.96
76352;BME280;65179;47.786;19.138;2023-04-30T00:52:43;100198.94;;;12.77;72.93
76352;BME280;65179;47.786;19.138;2023-04-30T00:55:10;100207.00;;;12.72;73.05
76352;BME280;65179;47.786;19.138;2023-04-30T00:57:37;100199.41;;;12.74;72.91
76352;BME280;65179;47.786;19.138;2023-04-30T01:00:03;100197.03;;;12.78;72.64
76352;BME280;65179;47.786;19.138;2023-04-30T01:02:29;100198.56;;;12.74;72.63
76352;BME280;65179;47.786;19.138;2023-04-30T01:04:55;100202.13;;;12.74;72.45
76352;BME280;65179;47.786;19.138;2023-04-30T01:07:21;100201.66;;;12.77;72.41
76352;BME280;65179;47.786;19.138;2023-04-30T01:09:47;100189.44;;;12.80;71.78
76352;BME280;65179;47.786;19.138;2023-04-30T01:12:54;100191.56;;;12.78;71.66
76352;BME280;65179;47.786;19.138;2023-04-30T01:20:29;100193.84;;;12.81;70.57
76352;BME280;65179;47.786;19.138;2023-04-30T01:23:35;100189.56;;;12.85;70.28
76352;BME280;65179;47.786;19.138;2023-04-30T01:26:13;100193.50;;;12.77;69.83
76352;BME280;65179;47.786;19.138;2023-04-30T01:28:42;100195.97;;;12.79;70.05
76352;BME280;65179;47.786;19.138;2023-04-30T01:31:18;100196.94;;;12.73;69.76
76352;BME280;65179;47.786;19.138;2023-04-30T01:33:44;100191.59;;;12.66;69.29
76352;BME280;65179;47.786;19.138;2023-04-30T01:36:29;100187.59;;;12.69;69.46
76352;BME280;65179;47.786;19.138;2023-04-30T01:39:11;100190.78;;;12.66;69.10
76352;BME280;65179;47.786;19.138;2023-04-30T01:42:11;100187.13;;;12.60;68.79
76352;BME280;65179;47.786;19.138;2023-04-30T01:45:21;100177.53;;;12.58;69.21
76352;BME280;65179;47.786;19.138;2023-04-30T01:47:51;100182.00;;;12.64;68.93
76352;BME280;65179;47.786;19.138;2023-04-30T01:52:46;100182.25;;;12.62;69.00
76352;BME280;65179;47.786;19.138;2023-04-30T01:57:55;100182.59;;;12.54;69.30
76352;BME280;65179;47.786;19.138;2023-04-30T02:00:23;100171.94;;;12.53;69.38
76352;BME280;65179;47.786;19.138;2023-04-30T02:02:49;100185.94;;;12.45;69.68
76352;BME280;65179;47.786;19.138;2023-04-30T02:05:14;100179.41;;;12.46;69.74
76352;BME280;65179;47.786;19.138;2023-04-30T02:07:42;100178.22;;;12.42;70.01
76352;BME280;65179;47.786;19.138;2023-04-30T02:10:08;100182.94;;;12.35;70.31
76352;BME280;65179;47.786;19.138;2023-04-30T02:12:34;100179.06;;;12.42;70.03
76352;BME280;65179;47.786;19.138;2023-04-30T02:15:00;100180.94;;;12.42;70.17
76352;BME280;65179;47.786;19.138;2023-04-30T02:17:25;100178.34;;;12.47;69.93
76352;BME280;65179;47.786;19.138;2023-04-30T02:19:51;100182.25;;;12.51;69.69
76352;BME280;65179;47.786;19.138;2023-04-30T02:22:16;100183.31;;;12.50;69.74
76352;BME280;65179;47.786;19.138;2023-04-30T02:24:41;100182.13;;;12.46;69.88
76352;BME280;65179;47.786;19.138;2023-04-30T02:27:07;100183.09;;;12.40;70.01
76352;BME280;65179;47.786;19.138;2023-04-30T02:29:33;100179.63;;;12.33;70.27
76352;BME280;65179;47.786;19.138;2023-04-30T02:31:58;100174.44;;;12.31;70.34
76352;BME280;65179;47.786;19.138;2023-04-30T02:34:24;100186.75;;;12.34;70.23
76352;BME280;65179;47.786;19.138;2023-04-30T02:36:50;100185.09;;;12.33;70.15
76352;BME280;65179;47.786;19.138;2023-04-30T02:39:15;100190.78;;;12.31;70.32
76352;BME280;65179;47.786;19.138;2023-04-30T02:41:41;100189.34;;;12.29;70.42
76352;BME280;65179;47.786;19.138;2023-04-30T02:44:06;100189.34;;;12.29;70.50
76352;BME280;65179;47.786;19.138;2023-04-30T02:46:32;100184.59;;;12.24;70.71
76352;BME280;65179;47.786;19.138;2023-04-30T02:48:57;100191.12;;;12.23;70.73
76352;BME280;65179;47.786;19.138;2023-04-30T02:51:22;100176.69;;;12.23;71.04
76352;BME280;65179;47.786;19.138;2023-04-30T02:53:48;100185.56;;;12.30;70.61
76352;BME280;65179;47.786;19.138;2023-04-30T02:56:13;100183.91;;;12.29;70.51
76352;BME280;65179;47.786;19.138;2023-04-30T02:58:39;100179.53;;;12.28;70.69
76352;BME280;65179;47.786;19.138;2023-04-30T03:01:05;100177.62;;;12.28;70.79
76352;BME280;65179;47.786;19.138;2023-04-30T03:03:31;100177.88;;;12.27;70.61
76352;BME280;65179;47.786;19.138;2023-04-30T03:05:56;100178.22;;;12.18;70.86
76352;BME280;65179;47.786;19.138;2023-04-30T03:08:24;100176.09;;;12.21;70.79
76352;BME280;65179;47.786;19.138;2023-04-30T03:10:49;100177.84;;;12.15;70.99
76352;BME280;65179;47.786;19.138;2023-04-30T03:13:15;100172.41;;;12.15;70.98
76352;BME280;65179;47.786;19.138;2023-04-30T03:15:40;100184.84;;;12.11;71.04
76352;BME280;65179;47.786;19.138;2023-04-30T03:18:06;100180.56;;;12.03;71.19
76352;BME280;65179;47.786;19.138;2023-04-30T03:20:31;100180.19;;;12.00;71.26
76352;BME280;65179;47.786;19.138;2023-04-30T03:22:56;100186.47;;;12.00;71.35
76352;BME280;65179;47.786;19.138;2023-04-30T03:25:22;100186.47;;;12.00;71.53
76352;BME280;65179;47.786;19.138;2023-04-30T03:27:47;100187.28;;;11.89;72.01
76352;BME280;65179;47.786;19.138;2023-04-30T03:30:13;100183.63;;;11.95;71.61
76352;BME280;65179;47.786;19.138;2023-04-30T03:32:38;100190.84;;;11.90;72.12
76352;BME280;65179;47.786;19.138;2023-04-30T03:35:04;100188.72;;;11.92;72.03
76352;BME280;65179;47.786;19.138;2023-04-30T03:37:30;100192.87;;;11.94;71.96
76352;BME280;65179;47.786;19.138;2023-04-30T03:39:55;100188.81;;;11.85;72.70
76352;BME280;65179;47.786;19.138;2023-04-30T03:42:21;100196.63;;;11.93;72.11
76352;BME280;65179;47.786;19.138;2023-04-30T03:44:46;100186.22;;;11.90;72.58
76352;BME280;65179;47.786;19.138;2023-04-30T03:47:12;100198.91;;;11.96;72.32
76352;BME280;65179;47.786;19.138;2023-04-30T03:49:38;100190.72;;;11.96;72.35
76352;BME280;65179;47.786;19.138;2023-04-30T03:52:03;100201.16;;;11.99;72.61
76352;BME280;65179;47.786;19.138;2023-04-30T03:54:30;100197.38;;;12.00;72.39
76352;BME280;65179;47.786;19.138;2023-04-30T03:56:58;100202.94;;;12.05;72.17
76352;BME280;65179;47.786;19.138;2023-04-30T03:59:24;100205.28;;;12.02;72.63
76352;BME280;65179;47.786;19.138;2023-04-30T04:01:50;100213.34;;;12.08;72.31
76352;BME280;65179;47.786;19.138;2023-04-30T04:04:15;100217.84;;;12.03;72.73
76352;BME280;65179;47.786;19.138;2023-04-30T04:06:41;100216.16;;;12.02;73.02
76352;BME280;65179;47.786;19.138;2023-04-30T04:09:07;100218.88;;;12.02;73.03
76352;BME280;65179;47.786;19.138;2023-04-30T04:11:32;100214.28;;;12.02;72.98
76352;BME280;65179;47.786;19.138;2023-04-30T04:13:58;100225.66;;;11.99;73.77
76352;BME280;65179;47.786;19.138;2023-04-30T04:16:24;100220.44;;;11.98;73.48
76352;BME280;65179;47.786;19.138;2023-04-30T04:18:50;100223.16;;;11.98;73.80
76352;BME280;65179;47.786;19.138;2023-04-30T04:21:15;100228.97;;;12.01;74.01
76352;BME280;65179;47.786;19.138;2023-04-30T04:23:41;100225.16;;;12.02;73.60
76352;BME280;65179;47.786;19.138;2023-04-30T04:26:06;100230.37;;;11.92;74.33
76352;BME280;65179;47.786;19.138;2023-04-30T04:28:32;100238.28;;;11.94;74.25
76352;BME280;65179;47.786;19.138;2023-04-30T04:30:57;100241.59;;;11.84;74.99
76352;BME280;65179;47.786;19.138;2023-04-30T04:33:23;100243.22;;;11.85;75.13
76352;BME280;65179;47.786;19.138;2023-04-30T04:35:49;100253.53;;;11.83;75.16
76352;BME280;65179;47.786;19.138;2023-04-30T04:38:14;100253.75;;;11.82;75.56
76352;BME280;65179;47.786;19.138;2023-04-30T04:40:40;100254.22;;;11.79;75.48
76352;BME280;65179;47.786;19.138;2023-04-30T04:43:05;100260.94;;;11.76;75.79
76352;BME280;65179;47.786;19.138;2023-04-30T04:45:31;100256.25;;;11.83;75.73
76352;BME280;65179;47.786;19.138;2023-04-30T04:47:57;100261.22;;;11.86;75.86
76352;BME280;65179;47.786;19.138;2023-04-30T04:50:23;100264.56;;;11.88;75.71
76352;BME280;65179;47.786;19.138;2023-04-30T04:52:48;100269.41;;;11.86;76.29
76352;BME280;65179;47.786;19.138;2023-04-30T04:55:14;100266.69;;;11.86;75.85
76352;BME280;65179;47.786;19.138;2023-04-30T04:57:39;100277.06;;;11.89;76.32
76352;BME280;65179;47.786;19.138;2023-04-30T05:00:07;100273.31;;;11.90;76.48
76352;BME280;65179;47.786;19.138;2023-04-30T05:02:34;100278.31;;;12.05;75.70
76352;BME280;65179;47.786;19.138;2023-04-30T05:04:59;100283.06;;;12.09;75.49
76352;BME280;65179;47.786;19.138;2023-04-30T05:07:25;100282.38;;;12.14;75.79
76352;BME280;65179;47.786;19.138;2023-04-30T05:09:51;100280.16;;;12.23;75.58
76352;BME280;65179;47.786;19.138;2023-04-30T05:12:16;100281.00;;;12.35;75.32
76352;BME280;65179;47.786;19.138;2023-04-30T05:14:42;100289.19;;;12.46;75.12
76352;BME280;65179;47.786;19.138;2023-04-30T05:17:09;100288.84;;;12.54;74.85
76352;BME280;65179;47.786;19.138;2023-04-30T05:19:34;100283.16;;;12.67;75.12
76352;BME280;65179;47.786;19.138;2023-04-30T05:21:59;100283.28;;;12.72;75.39
76352;BME280;65179;47.786;19.138;2023-04-30T05:24:27;100277.84;;;12.72;75.75
76352;BME280;65179;47.786;19.138;2023-04-30T05:26:52;100288.16;;;12.82;75.26
76352;BME280;65179;47.786;19.138;2023-04-30T05:29:17;100281.84;;;12.93;75.17
76352;BME280;65179;47.786;19.138;2023-04-30T05:31:43;100279.25;;;12.98;75.22
76352;BME280;65179;47.786;19.138;2023-04-30T05:34:08;100283.91;;;13.09;74.71
76352;BME280;65179;47.786;19.138;2023-04-30T05:36:34;100286.16;;;13.12;74.86
76352;BME280;65179;47.786;19.138;2023-04-30T05:38:59;100288.37;;;13.15;74.92
76352;BME280;65179;47.786;19.138;2023-04-30T05:41:25;100280.34;;;13.20;74.74
76352;BME280;65179;47.786;19.138;2023-04-30T05:43:50;100293.22;;;13.36;74.29
76352;BME280;65179;47.786;19.138;2023-04-30T05:46:15;100294.03;;;13.48;74.09
76352;BME280;65179;47.786;19.138;2023-04-30T05:48:41;100297.31;;;13.62;73.74
76352;BME280;65179;47.786;19.138;2023-04-30T05:51:06;100303.12;;;13.65;73.84
76352;BME280;65179;47.786;19.138;2023-04-30T05:53:32;100297.97;;;13.69;73.55
76352;BME280;65179;47.786;19.138;2023-04-30T05:55:57;100297.41;;;13.67;73.61
76352;BME280;65179;47.786;19.138;2023-04-30T05:58:24;100309.72;;;13.81;73.47
76352;BME280;65179;47.786;19.138;2023-04-30T06:00:49;100295.81;;;13.83;73.05
76352;BME280;65179;47.786;19.138;2023-04-30T06:03:18;100299.81;;;13.92;72.90
76352;BME280;65179;47.786;19.138;2023-04-30T06:05:45;100293.63;;;13.96;73.06
76352;BME280;65179;47.786;19.138;2023-04-30T06:08:11;100299.81;;;13.92;73.14
76352;BME280;65179;47.786;19.138;2023-04-30T06:10:36;100301.75;;;13.80;73.32
76352;BME280;65179;47.786;19.138;2023-04-30T06:13:03;100297.78;;;13.99;72.91
76352;BME280;65179;47.786;19.138;2023-04-30T06:15:28;100292.88;;;14.01;72.96
76352;BME280;65179;47.786;19.138;2023-04-30T06:17:54;100291.75;;;14.13;72.56
76352;BME280;65179;47.786;19.138;2023-04-30T06:20:19;100290.97;;;14.29;72.18
76352;BME280;65179;47.786;19.138;2023-04-30T06:22:45;100289.50;;;14.38;72.01
76352;BME280;65179;47.786;19.138;2023-04-30T06:25:10;100294.37;;;14.53;71.78
76352;BME280;65179;47.786;19.138;2023-04-30T06:27:36;100295.56;;;14.57;71.04
76352;BME280;65179;47.786;19.138;2023-04-30T06:30:01;100295.81;;;14.72;70.78
76352;BME280;65179;47.786;19.138;2023-04-30T06:32:27;100294.06;;;14.83;70.51
76352;BME280;65179;47.786;19.138;2023-04-30T06:34:52;100297.19;;;14.91;70.33
76352;BME280;65179;47.786;19.138;2023-04-30T06:37:18;100293.12;;;14.94;69.97
76352;BME280;65179;47.786;19.138;2023-04-30T06:39:43;100295.19;;;15.03;69.57
76352;BME280;65179;47.786;19.138;2023-04-30T06:42:09;100303.53;;;15.13;69.67
76352;BME280;65179;47.786;19.138;2023-04-30T06:44:34;100301.69;;;15.19;69.50
76352;BME280;65179;47.786;19.138;2023-04-30T06:47:00;100303.19;;;15.27;69.22
76352;BME280;65179;47.786;19.138;2023-04-30T06:49:25;100304.91;;;15.33;68.34
76352;BME280;65179;47.786;19.138;2023-04-30T06:51:50;100304.81;;;15.44;68.40
76352;BME280;65179;47.786;19.138;2023-04-30T06:54:16;100306.78;;;15.49;67.85
76352;BME280;65179;47.786;19.138;2023-04-30T06:56:41;100302.53;;;15.58;67.61
76352;BME280;65179;47.786;19.138;2023-04-30T06:59:08;100302.59;;;15.63;67.56
76352;BME280;65179;47.786;19.138;2023-04-30T07:01:34;100307.34;;;15.72;66.81
76352;BME280;65179;47.786;19.138;2023-04-30T07:04:00;100301.44;;;15.59;66.75
76352;BME280;65179;47.786;19.138;2023-04-30T07:06:25;100297.03;;;15.58;66.19
76352;BME280;65179;47.786;19.138;2023-04-30T07:08:51;100300.31;;;15.76;66.11
76352;BME280;65179;47.786;19.138;2023-04-30T07:11:16;100296.38;;;15.94;66.00
76352;BME280;65179;47.786;19.138;2023-04-30T07:13:42;100297.63;;;16.08;65.51
76352;BME280;65179;47.786;19.138;2023-04-30T07:16:07;100301.00;;;16.15;64.89
76352;BME280;65179;47.786;19.138;2023-04-30T07:18:35;100295.75;;;16.14;64.25
76352;BME280;65179;47.786;19.138;2023-04-30T07:21:00;100297.84;;;16.28;64.48
76352;BME280;65179;47.786;19.138;2023-04-30T07:23:26;100291.37;;;16.39;64.10
76352;BME280;65179;47.786;19.138;2023-04-30T07:25:51;100309.06;;;16.53;64.07
76352;BME280;65179;47.786;19.138;2023-04-30T07:28:16;100293.53;;;16.64;63.97
76352;BME280;65179;47.786;19.138;2023-04-30T07:30:42;100303.75;;;16.74;63.23
76352;BME280;65179;47.786;19.138;2023-04-30T07:33:07;100301.41;;;16.92;62.81
76352;BME280;65179;47.786;19.138;2023-04-30T07:35:33;100307.19;;;16.96;62.00
76352;BME280;65179;47.786;19.138;2023-04-30T07:37:59;100308.44;;;17.20;60.52
76352;BME280;65179;47.786;19.138;2023-04-30T07:40:25;100299.16;;;17.21;54.95
76352;BME280;65179;47.786;19.138;2023-04-30T07:42:50;100302.00;;;17.41;56.26
76352;BME280;65179;47.786;19.138;2023-04-30T07:45:16;100302.66;;;17.63;55.29
76352;BME280;65179;47.786;19.138;2023-04-30T07:47:42;100291.72;;;17.68;54.11
76352;BME280;65179;47.786;19.138;2023-04-30T07:50:08;100296.19;;;17.84;53.36
76352;BME280;65179;47.786;19.138;2023-04-30T07:52:34;100301.41;;;17.86;52.78
76352;BME280;65179;47.786;19.138;2023-04-30T07:54:59;100311.63;;;18.05;52.31
76352;BME280;65179;47.786;19.138;2023-04-30T07:57:25;100303.69;;;18.19;51.83
76352;BME280;65179;47.786;19.138;2023-04-30T07:59:54;100301.78;;;18.30;51.92
76352;BME280;65179;47.786;19.138;2023-04-30T08:02:20;100303.16;;;18.42;51.54
76352;BME280;65179;47.786;19.138;2023-04-30T08:04:45;100302.63;;;18.45;50.69
76352;BME280;65179;47.786;19.138;2023-04-30T08:07:11;100307.34;;;18.70;50.42
76352;BME280;65179;47.786;19.138;2023-04-30T08:09:36;100304.03;;;18.53;48.59
76352;BME280;65179;47.786;19.138;2023-04-30T08:12:02;100302.66;;;18.65;48.52
76352;BME280;65179;47.786;19.138;2023-04-30T08:14:29;100309.53;;;18.88;48.74
76352;BME280;65179;47.786;19.138;2023-04-30T08:16:55;100304.59;;;18.90;48.93
76352;BME280;65179;47.786;19.138;2023-04-30T08:19:22;100312.28;;;18.78;48.57
76352;BME280;65179;47.786;19.138;2023-04-30T08:21:48;100311.72;;;18.91;48.41
76352;BME280;65179;47.786;19.138;2023-04-30T08:24:13;100312.28;;;18.98;47.77
76352;BME280;65179;47.786;19.138;2023-04-30T08:26:38;100318.63;;;18.83;47.70
76352;BME280;65179;47.786;19.138;2023-04-30T08:29:04;100313.91;;;19.09;47.15
76352;BME280;65179;47.786;19.138;2023-04-30T08:31:32;100311.97;;;19.40;46.45
76352;BME280;65179;47.786;19.138;2023-04-30T08:33:58;100306.88;;;19.67;46.80
76352;BME280;65179;47.786;19.138;2023-04-30T08:36:23;100311.47;;;19.92;46.14
76352;BME280;65179;47.786;19.138;2023-04-30T08:38:49;100314.56;;;19.75;46.19
76352;BME280;65179;47.786;19.138;2023-04-30T08:41:14;100311.25;;;19.73;45.84
76352;BME280;65179;47.786;19.138;2023-04-30T08:43:42;100308.13;;;19.95;44.91
76352;BME280;65179;47.786;19.138;2023-04-30T08:46:10;100314.38;;;20.15;46.16
76352;BME280;65179;47.786;19.138;2023-04-30T08:48:38;100308.63;;;20.12;45.96
76352;BME280;65179;47.786;19.138;2023-04-30T08:51:05;100320.34;;;19.79;46.21
76352;BME280;65179;47.786;19.138;2023-04-30T08:53:34;100313.53;;;20.20;44.65
76352;BME280;65179;47.786;19.138;2023-04-30T08:56:00;100307.94;;;20.35;45.28
76352;BME280;65179;47.786;19.138;2023-04-30T08:58:26;100306.56;;;20.71;44.72
76352;BME280;65179;47.786;19.138;2023-04-30T09:00:51;100310.91;;;20.77;44.60
76352;BME280;65179;47.786;19.138;2023-04-30T09:03:16;100309.84;;;20.73;44.63
76352;BME280;65179;47.786;19.138;2023-04-30T09:05:42;100308.28;;;21.25;43.47
76352;BME280;65179;47.786;19.138;2023-04-30T09:08:07;100308.00;;;21.26;43.05
76352;BME280;65179;47.786;19.138;2023-04-30T09:10:34;100305.25;;;21.97;42.71
76352;BME280;65179;47.786;19.138;2023-04-30T09:13:04;100312.28;;;22.08;41.80
76352;BME280;65179;47.786;19.138;2023-04-30T09:15:30;100296.00;;;22.07;40.22
76352;BME280;65179;47.786;19.138;2023-04-30T09:18:14;100303.06;;;21.94;41.97
76352;BME280;65179;47.786;19.138;2023-04-30T09:20:58;100306.81;;;21.79;41.77
76352;BME280;65179;47.786;19.138;2023-04-30T09:23:26;100307.59;;;22.27;40.01
76352;BME280;65179;47.786;19.138;2023-04-30T09:25:51;100303.81;;;22.55;40.04
76352;BME280;65179;47.786;19.138;2023-04-30T09:28:17;100301.56;;;22.57;39.11
76352;BME280;65179;47.786;19.138;2023-04-30T09:30:43;100297.87;;;21.64;40.68
76352;BME280;65179;47.786;19.138;2023-04-30T09:33:08;100299.91;;;21.58;41.59
76352;BME280;65179;47.786;19.138;2023-04-30T09:35:38;100300.47;;;20.74;42.17
76352;BME280;65179;47.786;19.138;2023-04-30T09:38:03;100298.75;;;20.83;41.95
76352;BME280;65179;47.786;19.138;2023-04-30T09:40:40;100291.63;;;21.06;41.26
76352;BME280;65179;47.786;19.138;2023-04-30T09:43:06;100292.47;;;21.01;41.94
76352;BME280;65179;47.786;19.138;2023-04-30T09:45:45;100291.87;;;20.76;41.96
76352;BME280;65179;47.786;19.138;2023-04-30T09:48:19;100295.63;;;20.61;42.97
76352;BME280;65179;47.786;19.138;2023-04-30T09:50:45;100291.72;;;20.62;42.87
76352;BME280;65179;47.786;19.138;2023-04-30T09:53:12;100287.03;;;20.63;43.56
76352;BME280;65179;47.786;19.138;2023-04-30T09:55:42;100294.69;;;20.37;44.34
76352;BME280;65179;47.786;19.138;2023-04-30T09:58:09;100285.19;;;20.09;46.47
76352;BME280;65179;47.786;19.138;2023-04-30T10:00:36;100282.28;;;19.86;45.28
76352;BME280;65179;47.786;19.138;2023-04-30T10:03:08;100278.97;;;20.37;44.90
76352;BME280;65179;47.786;19.138;2023-04-30T10:05:39;100279.12;;;20.51;44.76
76352;BME280;65179;47.786;19.138;2023-04-30T10:08:09;100268.84;;;20.23;44.94
76352;BME280;65179;47.786;19.138;2023-04-30T10:10:39;100277.69;;;20.20;45.02
76352;BME280;65179;47.786;19.138;2023-04-30T10:13:10;100270.75;;;19.79;45.34
76352;BME280;65179;47.786;19.138;2023-04-30T10:15:50;100278.88;;;20.04;45.38
76352;BME280;65179;47.786;19.138;2023-04-30T10:18:27;100271.59;;;20.23;45.49
76352;BME280;65179;47.786;19.138;2023-04-30T10:20:53;100269.94;;;20.27;45.35
76352;BME280;65179;47.786;19.138;2023-04-30T10:23:20;100273.88;;;20.55;44.72
76352;BME280;65179;47.786;19.138;2023-04-30T10:25:47;100276.41;;;20.46;44.34
76352;BME280;65179;47.786;19.138;2023-04-30T10:28:15;100274.34;;;20.28;44.64
76352;BME280;65179;47.786;19.138;2023-04-30T10:30:41;100279.34;;;20.21;43.98
76352;BME280;65179;47.786;19.138;2023-04-30T10:33:22;100267.19;;;20.27;44.83
76352;BME280;65179;47.786;19.138;2023-04-30T10:35:56;100269.59;;;19.90;44.45
76352;BME280;65179;47.786;19.138;2023-04-30T10:38:27;100280.87;;;19.88;44.93
76352;BME280;65179;47.786;19.138;2023-04-30T10:40:58;100258.72;;;20.08;44.46
76352;BME280;65179;47.786;19.138;2023-04-30T10:43:24;100267.53;;;20.10;44.44
76352;BME280;65179;47.786;19.138;2023-04-30T10:45:50;100268.88;;;20.18;43.63
76352;BME280;65179;47.786;19.138;2023-04-30T10:48:16;100271.97;;;20.01;43.07
76352;BME280;65179;47.786;19.138;2023-04-30T10:50:50;100278.16;;;19.83;43.92
76352;BME280;65179;47.786;19.138;2023-04-30T10:53:18;100280.25;;;20.01;44.46
76352;BME280;65179;47.786;19.138;2023-04-30T10:55:46;100275.50;;;20.22;43.98
76352;BME280;65179;47.786;19.138;2023-04-30T10:58:23;100262.28;;;20.14;44.41
76352;BME280;65179;47.786;19.138;2023-04-30T11:01:10;100277.91;;;19.80;43.74
76352;BME280;65179;47.786;19.138;2023-04-30T11:03:38;100272.38;;;19.80;43.63
76352;BME280;65179;47.786;19.138;2023-04-30T11:06:14;100277.56;;;19.96;44.20
76352;BME280;65179;47.786;19.138;2023-04-30T11:08:44;100271.22;;;19.96;43.34
76352;BME280;65179;47.786;19.138;2023-04-30T11:11:11;100278.03;;;20.03;44.27
76352;BME280;65179;47.786;19.138;2023-04-30T11:13:58;100275.56;;;20.02;44.03
76352;BME280;65179;47.786;19.138;2023-04-30T11:16:30;100277.25;;;20.03;44.33
76352;BME280;65179;47.786;19.138;2023-04-30T11:19:04;100272.97;;;19.72;45.02
76352;BME280;65179;47.786;19.138;2023-04-30T11:21:33;100275.31;;;19.44;45.03
76352;BME280;65179;47.786;19.138;2023-04-30T11:24:02;100290.72;;;19.50;45.00
76352;BME280;65179;47.786;19.138;2023-04-30T11:26:28;100288.41;;;19.73;45.05
76352;BME280;65179;47.786;19.138;2023-04-30T11:28:54;100286.81;;;19.61;45.30
76352;BME280;65179;47.786;19.138;2023-04-30T11:31:20;100275.25;;;19.54;45.51
76352;BME280;65179;47.786;19.138;2023-04-30T11:33:47;100280.69;;;19.75;45.69
76352;BME280;65179;47.786;19.138;2023-04-30T11:36:13;100277.28;;;19.93;45.30
76352;BME280;65179;47.786;19.138;2023-04-30T11:38:39;100275.66;;;19.92;44.91
76352;BME280;65179;47.786;19.138;2023-04-30T11:41:05;100271.91;;;20.21;44.58
76352;BME280;65179;47.786;19.138;2023-04-30T11:43:33;100277.63;;;20.30;44.58
76352;BME280;65179;47.786;19.138;2023-04-30T11:46:12;100272.59;;;19.88;45.12
76352;BME280;65179;47.786;19.138;2023-04-30T11:48:43;100273.66;;;19.97;45.09
76352;BME280;65179;47.786;19.138;2023-04-30T11:51:18;100270.69;;;19.89;44.65
76352;BME280;65179;47.786;19.138;2023-04-30T11:53:47;100277.87;;;19.90;44.07
76352;BME280;65179;47.786;19.138;2023-04-30T11:56:21;100272.88;;;19.92;45.00
76352;BME280;65179;47.786;19.138;2023-04-30T11:58:50;100271.91;;;20.21;43.69
76352;BME280;65179;47.786;19.138;2023-04-30T12:01:17;100269.00;;;20.42;43.13
76352;BME280;65179;47.786;19.138;2023-04-30T12:03:44;100274.75;;;20.79;42.29
76352;BME280;65179;47.786;19.138;2023-04-30T12:06:11;100277.41;;;20.60;42.32
76352;BME280;65179;47.786;19.138;2023-04-30T12:08:37;100279.34;;;20.21;42.34
76352;BME280;65179;47.786;19.138;2023-04-30T12:11:03;100269.38;;;20.92;41.47
76352;BME280;65179;47.786;19.138;2023-04-30T12:13:32;100270.03;;;21.37;41.11
76352;BME280;65179;47.786;19.138;2023-04-30T12:15:58;100265.91;;;21.10;41.32
76352;BME280;65179;47.786;19.138;2023-04-30T12:18:24;100267.63;;;21.54;40.81
76352;BME280;65179;47.786;19.138;2023-04-30T12:20:51;100262.94;;;21.31;40.13
76352;BME280;65179;47.786;19.138;2023-04-30T12:23:17;100251.53;;;21.37;39.68
76352;BME280;65179;47.786;19.138;2023-04-30T12:25:43;100258.53;;;21.96;39.72
76352;BME280;65179;47.786;19.138;2023-04-30T12:28:09;100249.47;;;21.48;39.93
76352;BME280;65179;47.786;19.138;2023-04-30T12:30:35;100250.09;;;21.87;39.90
76352;BME280;65179;47.786;19.138;2023-04-30T12:33:02;100246.53;;;22.37;40.22
76352;BME280;65179;47.786;19.138;2023-04-30T12:35:29;100251.00;;;22.71;39.33
76352;BME280;65179;47.786;19.138;2023-04-30T12:38:03;100258.06;;;22.07;38.72
76352;BME280;65179;47.786;19.138;2023-04-30T12:40:30;100241.38;;;22.49;38.68
76352;BME280;65179;47.786;19.138;2023-04-30T12:43:06;100240.59;;;22.12;39.05
76352;BME280;65179;47.786;19.138;2023-04-30T12:45:48;100236.22;;;22.24;38.68
76352;BME280;65179;47.786;19.138;2023-04-30T12:48:19;100233.13;;;22.12;38.53
76352;BME280;65179;47.786;19.138;2023-04-30T12:53:17;100226.59;;;22.73;38.07
76352;BME280;65179;47.786;19.138;2023-04-30T12:55:42;100226.16;;;23.25;37.22